ELY2569 VTBS-VVNB
Flight info
| Callsign | ELY2569 |
|---|---|
| Flight time | 1h 23m |
| Altitude | 35000 |
| Route | ALBOS1F ALBOS R474 LAVOS/K0857F350 R474 MC MC3F |
| Aircraft | B738/M-SDE2E3FGHIRWXY/LB1 |
Departure
| Time | 2026-05-09 12:14 |
|---|---|
| Airport | Suvarnabhumi Airport (VTBS) |
Arrival
| Time | 2026-05-09 13:38 |
|---|---|
| Airport | Noi Bai International Airport (VVNB) |
| Time | Latitude | Longitude | Altitude | Speed | Heading |
|---|---|---|---|---|---|
| 2026-05-09 11:32 | 13.68822 | 100.74645 | 13 ft | 0 kts | 284° |
| 2026-05-09 11:59 | 13.68821 | 100.74650 | -15 ft | 4 kts | 283° |
| 2026-05-09 12:00 | 13.68816 | 100.74677 | 14 ft | 4 kts | 275° |
| 2026-05-09 12:00 | 13.68815 | 100.74704 | 15 ft | 4 kts | 261° |
| 2026-05-09 12:00 | 13.68824 | 100.74729 | 13 ft | 4 kts | 219° |
| 2026-05-09 12:00 | 13.68835 | 100.74735 | 13 ft | 1 kts | 194° |
| 2026-05-09 12:01 | 13.68837 | 100.74736 | 13 ft | 0 kts | 194° |
| 2026-05-09 12:02 | 13.68836 | 100.74735 | 13 ft | 1 kts | 194° |
| 2026-05-09 12:02 | 13.68810 | 100.74729 | 14 ft | 7 kts | 194° |
| 2026-05-09 12:03 | 13.68738 | 100.74708 | 12 ft | 14 kts | 210° |
| 2026-05-09 12:03 | 13.68719 | 100.74611 | 15 ft | 16 kts | 286° |
| 2026-05-09 12:03 | 13.68745 | 100.74501 | 12 ft | 16 kts | 285° |
| 2026-05-09 12:03 | 13.68776 | 100.74398 | 14 ft | 15 kts | 280° |
| 2026-05-09 12:04 | 13.68795 | 100.74295 | 12 ft | 14 kts | 284° |
| 2026-05-09 12:04 | 13.68778 | 100.74205 | 13 ft | 14 kts | 217° |
| 2026-05-09 12:04 | 13.68692 | 100.74200 | 12 ft | 13 kts | 139° |
| 2026-05-09 12:04 | 13.68657 | 100.74289 | 12 ft | 14 kts | 103° |
| 2026-05-09 12:05 | 13.68632 | 100.74394 | 12 ft | 16 kts | 104° |
| 2026-05-09 12:05 | 13.68604 | 100.74506 | 12 ft | 17 kts | 105° |
| 2026-05-09 12:05 | 13.68574 | 100.74624 | 13 ft | 17 kts | 104° |
| 2026-05-09 12:05 | 13.68544 | 100.74747 | 12 ft | 18 kts | 104° |
| 2026-05-09 12:06 | 13.68511 | 100.74873 | 13 ft | 18 kts | 105° |
| 2026-05-09 12:06 | 13.68479 | 100.75000 | 12 ft | 18 kts | 104° |
| 2026-05-09 12:06 | 13.68448 | 100.75121 | 12 ft | 17 kts | 105° |
| 2026-05-09 12:06 | 13.68418 | 100.75239 | 12 ft | 17 kts | 104° |
| 2026-05-09 12:07 | 13.68390 | 100.75352 | 12 ft | 16 kts | 104° |
| 2026-05-09 12:07 | 13.68362 | 100.75461 | 12 ft | 15 kts | 104° |
| 2026-05-09 12:07 | 13.68326 | 100.75561 | 12 ft | 15 kts | 136° |
| 2026-05-09 12:07 | 13.68230 | 100.75565 | 12 ft | 14 kts | 195° |
| 2026-05-09 12:08 | 13.68131 | 100.75566 | 12 ft | 16 kts | 142° |
| 2026-05-09 12:08 | 13.68025 | 100.75612 | 12 ft | 19 kts | 195° |
| 2026-05-09 12:08 | 13.67894 | 100.75578 | 14 ft | 20 kts | 194° |
| 2026-05-09 12:08 | 13.67756 | 100.75541 | 12 ft | 20 kts | 195° |
| 2026-05-09 12:09 | 13.67621 | 100.75505 | 12 ft | 20 kts | 195° |
| 2026-05-09 12:09 | 13.67490 | 100.75471 | 12 ft | 19 kts | 194° |
| 2026-05-09 12:09 | 13.67363 | 100.75438 | 12 ft | 18 kts | 194° |
| 2026-05-09 12:10 | 13.67010 | 100.75345 | 12 ft | 16 kts | 194° |
| 2026-05-09 12:10 | 13.66905 | 100.75317 | 11 ft | 15 kts | 194° |
| 2026-05-09 12:10 | 13.66803 | 100.75291 | 11 ft | 16 kts | 194° |
| 2026-05-09 12:11 | 13.66682 | 100.75259 | 12 ft | 21 kts | 194° |
| 2026-05-09 12:11 | 13.66528 | 100.75219 | 12 ft | 25 kts | 195° |
| 2026-05-09 12:11 | 13.66346 | 100.75170 | 12 ft | 28 kts | 194° |
| 2026-05-09 12:11 | 13.66161 | 100.75122 | 12 ft | 27 kts | 194° |
| 2026-05-09 12:12 | 13.65989 | 100.75077 | 13 ft | 24 kts | 194° |
| 2026-05-09 12:12 | 13.65834 | 100.75036 | 13 ft | 23 kts | 194° |
| 2026-05-09 12:12 | 13.65700 | 100.75067 | 12 ft | 22 kts | 113° |
| 2026-05-09 12:12 | 13.65740 | 100.75201 | 13 ft | 19 kts | 28° |
| 2026-05-09 12:13 | 13.65754 | 100.75207 | 13 ft | 0 kts | 19° |
| 2026-05-09 12:13 | 13.65769 | 100.75211 | 13 ft | 17 kts | 15° |
| 2026-05-09 12:13 | 13.66116 | 100.75298 | 14 ft | 87 kts | 14° |
| 2026-05-09 12:13 | 13.66926 | 100.75511 | 13 ft | 149 kts | 14° |
| 2026-05-09 12:14 | 13.68076 | 100.75769 | 283 ft | 175 kts | 12° |
| 2026-05-09 12:14 | 13.69245 | 100.76060 | 882 ft | 182 kts | 17° |
| 2026-05-09 12:14 | 13.70275 | 100.76734 | 1483 ft | 179 kts | 59° |
| 2026-05-09 12:14 | 13.70956 | 100.77843 | 1996 ft | 194 kts | 59° |
| 2026-05-09 12:15 | 13.71761 | 100.79090 | 2219 ft | 222 kts | 59° |
| 2026-05-09 12:15 | 13.72648 | 100.80428 | 2685 ft | 231 kts | 58° |
| 2026-05-09 12:15 | 13.73569 | 100.81796 | 3342 ft | 231 kts | 57° |
| 2026-05-09 12:15 | 13.74492 | 100.83159 | 4033 ft | 236 kts | 57° |
| 2026-05-09 12:16 | 13.75432 | 100.84544 | 4830 ft | 236 kts | 57° |
| 2026-05-09 12:16 | 13.76390 | 100.85930 | 5540 ft | 243 kts | 56° |
| 2026-05-09 12:16 | 13.77459 | 100.87393 | 5798 ft | 268 kts | 54° |
| 2026-05-09 12:16 | 13.78234 | 100.88438 | 6224 ft | 274 kts | 54° |
| 2026-05-09 12:17 | 13.79394 | 100.90000 | 6910 ft | 278 kts | 54° |
| 2026-05-09 12:17 | 13.80555 | 100.91570 | 7585 ft | 281 kts | 55° |
| 2026-05-09 12:17 | 13.81744 | 100.93183 | 7934 ft | 283 kts | 55° |
| 2026-05-09 12:17 | 13.82933 | 100.94799 | 8007 ft | 282 kts | 55° |
| 2026-05-09 12:18 | 13.84156 | 100.96383 | 8015 ft | 285 kts | 46° |
| 2026-05-09 12:18 | 13.85859 | 100.97432 | 8037 ft | 290 kts | 19° |
| 2026-05-09 12:18 | 13.87866 | 100.97734 | 8038 ft | 294 kts | 5° |
| 2026-05-09 12:18 | 13.89947 | 100.97828 | 8032 ft | 296 kts | 4° |
| 2026-05-09 12:19 | 13.91983 | 100.97924 | 8032 ft | 297 kts | 5° |
| 2026-05-09 12:19 | 13.94078 | 100.98036 | 8024 ft | 297 kts | 5° |
| 2026-05-09 12:19 | 13.96120 | 100.98151 | 8147 ft | 299 kts | 5° |
| 2026-05-09 12:19 | 13.98232 | 100.98276 | 8853 ft | 300 kts | 5° |
| 2026-05-09 12:20 | 14.00291 | 100.98398 | 9663 ft | 301 kts | 5° |
| 2026-05-09 12:20 | 14.02396 | 100.98525 | 10294 ft | 306 kts | 5° |
| 2026-05-09 12:20 | 14.04597 | 100.98658 | 10497 ft | 328 kts | 5° |
| 2026-05-09 12:20 | 14.06949 | 100.98801 | 10665 ft | 349 kts | 5° |
| 2026-05-09 12:21 | 14.09419 | 100.98949 | 11047 ft | 360 kts | 5° |
| 2026-05-09 12:21 | 14.11943 | 100.99099 | 11620 ft | 364 kts | 5° |
| 2026-05-09 12:21 | 14.14475 | 100.99249 | 12235 ft | 367 kts | 5° |
| 2026-05-09 12:21 | 14.17031 | 100.99400 | 12824 ft | 371 kts | 5° |
| 2026-05-09 12:22 | 14.19631 | 100.99554 | 13411 ft | 375 kts | 5° |
| 2026-05-09 12:22 | 14.22244 | 100.99709 | 13939 ft | 378 kts | 4° |
| 2026-05-09 12:22 | 14.24881 | 100.99866 | 14468 ft | 381 kts | 4° |
| 2026-05-09 12:22 | 14.27526 | 101.00024 | 15005 ft | 383 kts | 4° |
| 2026-05-09 12:23 | 14.30185 | 101.00183 | 15521 ft | 386 kts | 4° |
| 2026-05-09 12:23 | 14.32873 | 101.00343 | 16029 ft | 389 kts | 4° |
| 2026-05-09 12:23 | 14.35593 | 101.00505 | 16512 ft | 393 kts | 4° |
| 2026-05-09 12:23 | 14.38333 | 101.00668 | 17012 ft | 396 kts | 4° |
| 2026-05-09 12:24 | 14.41078 | 101.00830 | 17508 ft | 398 kts | 4° |
| 2026-05-09 12:24 | 14.43839 | 101.00993 | 17997 ft | 401 kts | 4° |
| 2026-05-09 12:24 | 14.46634 | 101.01158 | 18416 ft | 404 kts | 4° |
| 2026-05-09 12:24 | 14.49449 | 101.01324 | 18844 ft | 406 kts | 4° |
| 2026-05-09 12:25 | 14.52278 | 101.01491 | 19279 ft | 407 kts | 3° |
| 2026-05-09 12:25 | 14.55115 | 101.01658 | 19714 ft | 409 kts | 3° |
| 2026-05-09 12:25 | 14.57964 | 101.01826 | 20116 ft | 412 kts | 3° |
| 2026-05-09 12:25 | 14.60835 | 101.01996 | 20535 ft | 414 kts | 3° |
| 2026-05-09 12:26 | 14.63680 | 101.02163 | 20930 ft | 416 kts | 3° |
| 2026-05-09 12:26 | 14.66574 | 101.02334 | 21326 ft | 418 kts | 3° |
| 2026-05-09 12:26 | 14.69480 | 101.02506 | 21706 ft | 420 kts | 3° |
| 2026-05-09 12:26 | 14.72412 | 101.02680 | 22071 ft | 423 kts | 3° |
| 2026-05-09 12:27 | 14.75320 | 101.03150 | 22393 ft | 426 kts | 19° |
| 2026-05-09 12:27 | 14.78022 | 101.04427 | 22776 ft | 428 kts | 26° |
| 2026-05-09 12:27 | 14.80685 | 101.05813 | 23145 ft | 430 kts | 26° |
| 2026-05-09 12:27 | 14.83375 | 101.07210 | 23446 ft | 433 kts | 26° |
| 2026-05-09 12:28 | 14.86078 | 101.08604 | 23717 ft | 435 kts | 26° |
| 2026-05-09 12:28 | 14.88790 | 101.09990 | 24023 ft | 436 kts | 26° |
| 2026-05-09 12:28 | 14.91519 | 101.11377 | 24306 ft | 438 kts | 26° |
| 2026-05-09 12:28 | 14.94261 | 101.12765 | 24581 ft | 439 kts | 26° |
| 2026-05-09 12:29 | 14.97013 | 101.14154 | 24854 ft | 441 kts | 26° |
| 2026-05-09 12:29 | 14.99777 | 101.15548 | 25102 ft | 443 kts | 26° |
| 2026-05-09 12:29 | 15.02556 | 101.16950 | 25388 ft | 445 kts | 26° |
| 2026-05-09 12:29 | 15.05327 | 101.18349 | 25637 ft | 447 kts | 26° |
| 2026-05-09 12:30 | 15.08115 | 101.19756 | 25882 ft | 448 kts | 26° |
| 2026-05-09 12:30 | 15.10920 | 101.21173 | 26173 ft | 449 kts | 26° |
| 2026-05-09 12:30 | 15.16578 | 101.24032 | 26656 ft | 453 kts | 26° |
| 2026-05-09 12:31 | 15.19413 | 101.25465 | 26914 ft | 454 kts | 26° |
| 2026-05-09 12:31 | 15.25122 | 101.28353 | 27387 ft | 457 kts | 26° |
| 2026-05-09 12:31 | 15.27979 | 101.29799 | 27633 ft | 459 kts | 26° |
| 2026-05-09 12:32 | 15.30840 | 101.31247 | 27869 ft | 460 kts | 26° |
| 2026-05-09 12:32 | 15.33682 | 101.32686 | 28092 ft | 461 kts | 26° |
| 2026-05-09 12:32 | 15.36578 | 101.34153 | 28252 ft | 465 kts | 26° |
| 2026-05-09 12:32 | 15.39521 | 101.35645 | 28431 ft | 467 kts | 26° |
| 2026-05-09 12:33 | 15.42426 | 101.37117 | 28659 ft | 468 kts | 26° |
| 2026-05-09 12:33 | 15.45357 | 101.38603 | 28868 ft | 469 kts | 26° |
| 2026-05-09 12:33 | 15.48290 | 101.40090 | 29098 ft | 470 kts | 26° |
| 2026-05-09 12:33 | 15.51214 | 101.41574 | 29297 ft | 471 kts | 26° |
| 2026-05-09 12:34 | 15.54169 | 101.43074 | 29493 ft | 473 kts | 26° |
| 2026-05-09 12:34 | 15.57112 | 101.44568 | 29693 ft | 474 kts | 26° |
| 2026-05-09 12:34 | 15.60080 | 101.46075 | 29861 ft | 476 kts | 27° |
| 2026-05-09 12:34 | 15.63051 | 101.47584 | 30033 ft | 477 kts | 27° |
| 2026-05-09 12:35 | 15.66033 | 101.49099 | 30184 ft | 478 kts | 26° |
| 2026-05-09 12:35 | 15.69026 | 101.50620 | 30346 ft | 479 kts | 26° |
| 2026-05-09 12:35 | 15.72020 | 101.52143 | 30461 ft | 481 kts | 26° |
| 2026-05-09 12:35 | 15.75035 | 101.53676 | 30598 ft | 482 kts | 26° |
| 2026-05-09 12:36 | 15.78037 | 101.55204 | 30849 ft | 481 kts | 26° |
| 2026-05-09 12:36 | 15.81046 | 101.56735 | 31076 ft | 480 kts | 26° |
| 2026-05-09 12:36 | 15.84043 | 101.58261 | 31255 ft | 481 kts | 26° |
| 2026-05-09 12:36 | 15.87039 | 101.59786 | 31509 ft | 479 kts | 26° |
| 2026-05-09 12:37 | 15.90037 | 101.61314 | 31734 ft | 479 kts | 26° |
| 2026-05-09 12:37 | 15.93027 | 101.62838 | 31947 ft | 479 kts | 26° |
| 2026-05-09 12:37 | 15.96015 | 101.64361 | 32192 ft | 478 kts | 26° |
| 2026-05-09 12:37 | 15.98996 | 101.65881 | 32392 ft | 478 kts | 26° |
| 2026-05-09 12:38 | 16.01977 | 101.67402 | 32666 ft | 476 kts | 26° |
| 2026-05-09 12:38 | 16.04898 | 101.68893 | 32977 ft | 474 kts | 26° |
| 2026-05-09 12:38 | 16.07852 | 101.70401 | 33260 ft | 472 kts | 26° |
| 2026-05-09 12:38 | 16.10799 | 101.71905 | 33507 ft | 471 kts | 26° |
| 2026-05-09 12:39 | 16.13733 | 101.73404 | 33688 ft | 472 kts | 26° |
| 2026-05-09 12:39 | 16.16681 | 101.74910 | 33924 ft | 472 kts | 26° |
| 2026-05-09 12:39 | 16.19661 | 101.76434 | 34157 ft | 470 kts | 26° |
| 2026-05-09 12:39 | 16.22562 | 101.77917 | 34353 ft | 470 kts | 26° |
| 2026-05-09 12:40 | 16.25480 | 101.79410 | 34589 ft | 469 kts | 26° |
| 2026-05-09 12:40 | 16.28413 | 101.80910 | 34791 ft | 468 kts | 26° |
| 2026-05-09 12:40 | 16.31317 | 101.82396 | 34884 ft | 464 kts | 26° |
| 2026-05-09 12:41 | 16.37124 | 101.85371 | 34907 ft | 466 kts | 25° |
| 2026-05-09 12:41 | 16.42986 | 101.88374 | 34913 ft | 472 kts | 25° |
| 2026-05-09 12:42 | 16.48906 | 101.91409 | 34902 ft | 476 kts | 25° |
| 2026-05-09 12:42 | 16.54841 | 101.94455 | 34886 ft | 474 kts | 25° |
| 2026-05-09 12:43 | 16.60703 | 101.97465 | 34886 ft | 467 kts | 25° |
| 2026-05-09 12:43 | 16.66593 | 102.00259 | 34895 ft | 465 kts | 20° |
| 2026-05-09 12:44 | 16.72630 | 102.02638 | 34897 ft | 465 kts | 19° |
| 2026-05-09 12:44 | 16.78701 | 102.04976 | 34898 ft | 466 kts | 19° |
| 2026-05-09 12:45 | 16.84758 | 102.07352 | 34891 ft | 467 kts | 19° |
| 2026-05-09 12:45 | 16.90838 | 102.09767 | 34893 ft | 468 kts | 20° |
| 2026-05-09 12:46 | 16.96892 | 102.12181 | 34892 ft | 469 kts | 20° |
| 2026-05-09 12:46 | 17.03001 | 102.14617 | 34893 ft | 469 kts | 20° |
| 2026-05-09 12:47 | 17.09094 | 102.17048 | 34891 ft | 470 kts | 20° |
| 2026-05-09 12:47 | 17.15204 | 102.19486 | 34880 ft | 471 kts | 20° |
| 2026-05-09 12:48 | 17.21305 | 102.21923 | 34884 ft | 472 kts | 20° |
| 2026-05-09 12:48 | 17.27440 | 102.24375 | 34880 ft | 472 kts | 20° |
| 2026-05-09 12:49 | 17.33570 | 102.26826 | 34878 ft | 472 kts | 20° |
| 2026-05-09 12:49 | 17.39725 | 102.29290 | 34871 ft | 473 kts | 19° |
| 2026-05-09 12:50 | 17.45866 | 102.31749 | 34879 ft | 473 kts | 19° |
| 2026-05-09 12:50 | 17.51964 | 102.34193 | 34872 ft | 473 kts | 19° |
| 2026-05-09 12:51 | 17.58090 | 102.36650 | 34868 ft | 474 kts | 19° |
| 2026-05-09 12:51 | 17.64233 | 102.39116 | 34881 ft | 474 kts | 19° |
| 2026-05-09 12:52 | 17.70393 | 102.41590 | 34897 ft | 474 kts | 19° |
| 2026-05-09 12:52 | 17.76556 | 102.44066 | 34883 ft | 474 kts | 19° |
| 2026-05-09 12:53 | 17.82676 | 102.46527 | 34880 ft | 473 kts | 19° |
| 2026-05-09 12:53 | 17.88813 | 102.49015 | 34883 ft | 472 kts | 19° |
| 2026-05-09 12:54 | 17.94934 | 102.51521 | 34883 ft | 471 kts | 19° |
| 2026-05-09 12:54 | 18.01001 | 102.54119 | 34880 ft | 472 kts | 25° |
| 2026-05-09 12:55 | 18.06492 | 102.57925 | 34891 ft | 473 kts | 34° |
| 2026-05-09 12:55 | 18.11812 | 102.62016 | 34884 ft | 474 kts | 34° |
| 2026-05-09 12:56 | 18.17147 | 102.66084 | 34883 ft | 475 kts | 34° |
| 2026-05-09 12:56 | 18.22522 | 102.70135 | 34888 ft | 476 kts | 34° |
| 2026-05-09 12:57 | 18.27005 | 102.73498 | 34886 ft | 477 kts | 34° |
| 2026-05-09 12:57 | 18.32455 | 102.77587 | 34897 ft | 478 kts | 34° |
| 2026-05-09 12:58 | 18.37870 | 102.81656 | 34895 ft | 479 kts | 34° |
| 2026-05-09 12:58 | 18.43291 | 102.85735 | 34903 ft | 479 kts | 34° |
| 2026-05-09 12:59 | 18.48718 | 102.89820 | 34898 ft | 480 kts | 34° |
| 2026-05-09 12:59 | 18.54134 | 102.93901 | 34922 ft | 479 kts | 34° |
| 2026-05-09 13:00 | 18.59527 | 102.97968 | 34920 ft | 479 kts | 34° |
| 2026-05-09 13:00 | 18.64941 | 103.02054 | 34923 ft | 478 kts | 34° |
| 2026-05-09 13:01 | 18.70341 | 103.06133 | 34944 ft | 477 kts | 34° |
| 2026-05-09 13:01 | 18.75739 | 103.10213 | 34944 ft | 477 kts | 34° |
| 2026-05-09 13:02 | 18.81136 | 103.14294 | 34956 ft | 477 kts | 34° |
| 2026-05-09 13:02 | 18.86521 | 103.18372 | 34953 ft | 476 kts | 34° |
| 2026-05-09 13:03 | 18.91913 | 103.22458 | 34965 ft | 476 kts | 34° |
| 2026-05-09 13:03 | 18.97290 | 103.26535 | 34964 ft | 476 kts | 34° |
| 2026-05-09 13:04 | 19.02656 | 103.30607 | 34962 ft | 477 kts | 34° |
| 2026-05-09 13:04 | 19.08050 | 103.34704 | 34972 ft | 477 kts | 34° |
| 2026-05-09 13:05 | 19.13413 | 103.38781 | 34976 ft | 478 kts | 34° |
| 2026-05-09 13:05 | 19.18804 | 103.42881 | 34979 ft | 478 kts | 34° |
| 2026-05-09 13:06 | 19.24201 | 103.46992 | 34981 ft | 479 kts | 34° |
| 2026-05-09 13:06 | 19.29606 | 103.51111 | 34996 ft | 479 kts | 34° |
| 2026-05-09 13:07 | 19.35026 | 103.55244 | 34987 ft | 479 kts | 34° |
| 2026-05-09 13:07 | 19.40436 | 103.59372 | 34990 ft | 479 kts | 34° |
| 2026-05-09 13:08 | 19.45849 | 103.63522 | 34991 ft | 479 kts | 34° |
| 2026-05-09 13:08 | 19.51230 | 103.67694 | 34996 ft | 478 kts | 35° |
| 2026-05-09 13:09 | 19.56600 | 103.71865 | 34989 ft | 479 kts | 35° |
| 2026-05-09 13:09 | 19.61933 | 103.76004 | 34991 ft | 479 kts | 34° |
| 2026-05-09 13:10 | 19.67320 | 103.80186 | 34995 ft | 479 kts | 34° |
| 2026-05-09 13:10 | 19.72688 | 103.84356 | 34986 ft | 479 kts | 34° |
| 2026-05-09 13:11 | 19.78065 | 103.88535 | 34991 ft | 478 kts | 34° |
| 2026-05-09 13:11 | 19.83429 | 103.92710 | 34997 ft | 478 kts | 34° |
| 2026-05-09 13:12 | 19.88829 | 103.96915 | 34450 ft | 485 kts | 35° |
| 2026-05-09 13:12 | 19.91523 | 103.99015 | 34062 ft | 480 kts | 34° |
| 2026-05-09 13:12 | 19.94209 | 104.01110 | 33542 ft | 478 kts | 34° |
| 2026-05-09 13:12 | 19.96865 | 104.03182 | 33076 ft | 474 kts | 34° |
| 2026-05-09 13:13 | 19.99509 | 104.05246 | 32627 ft | 470 kts | 34° |
| 2026-05-09 13:13 | 20.02124 | 104.07287 | 32190 ft | 467 kts | 34° |
| 2026-05-09 13:13 | 20.04734 | 104.09323 | 31755 ft | 464 kts | 35° |
| 2026-05-09 13:13 | 20.07322 | 104.11346 | 31298 ft | 461 kts | 35° |
| 2026-05-09 13:14 | 20.09892 | 104.13356 | 30861 ft | 458 kts | 35° |
| 2026-05-09 13:14 | 20.12463 | 104.15367 | 30415 ft | 456 kts | 35° |
| 2026-05-09 13:16 | 20.29932 | 104.29050 | 27215 ft | 434 kts | 35° |
| 2026-05-09 13:16 | 20.32359 | 104.30953 | 26785 ft | 432 kts | 35° |
| 2026-05-09 13:16 | 20.34769 | 104.32844 | 26357 ft | 429 kts | 35° |
| 2026-05-09 13:16 | 20.37152 | 104.34714 | 25901 ft | 427 kts | 36° |
| 2026-05-09 13:17 | 20.39532 | 104.36584 | 25477 ft | 425 kts | 36° |
| 2026-05-09 13:17 | 20.41908 | 104.38450 | 25032 ft | 423 kts | 36° |
| 2026-05-09 13:17 | 20.44276 | 104.40309 | 24600 ft | 421 kts | 36° |
| 2026-05-09 13:17 | 20.46644 | 104.42142 | 24156 ft | 420 kts | 35° |
| 2026-05-09 13:18 | 20.49009 | 104.43958 | 23732 ft | 418 kts | 35° |
| 2026-05-09 13:18 | 20.51371 | 104.45770 | 23245 ft | 417 kts | 35° |
| 2026-05-09 13:18 | 20.53717 | 104.47570 | 22798 ft | 414 kts | 35° |
| 2026-05-09 13:18 | 20.56050 | 104.49362 | 22341 ft | 412 kts | 35° |
| 2026-05-09 13:19 | 20.58363 | 104.51142 | 21938 ft | 409 kts | 35° |
| 2026-05-09 13:19 | 20.60665 | 104.52915 | 21517 ft | 407 kts | 35° |
| 2026-05-09 13:19 | 20.62949 | 104.54674 | 21100 ft | 404 kts | 35° |
| 2026-05-09 13:19 | 20.65221 | 104.56426 | 20692 ft | 402 kts | 35° |
| 2026-05-09 13:20 | 20.67486 | 104.58174 | 20261 ft | 401 kts | 35° |
| 2026-05-09 13:20 | 20.69738 | 104.59911 | 19836 ft | 399 kts | 35° |
| 2026-05-09 13:20 | 20.71986 | 104.61647 | 19433 ft | 397 kts | 35° |
| 2026-05-09 13:20 | 20.74218 | 104.63369 | 19010 ft | 395 kts | 35° |
| 2026-05-09 13:21 | 20.76442 | 104.65087 | 18592 ft | 394 kts | 35° |
| 2026-05-09 13:21 | 20.78662 | 104.66803 | 18168 ft | 393 kts | 35° |
| 2026-05-09 13:21 | 20.80871 | 104.68512 | 17731 ft | 391 kts | 36° |
| 2026-05-09 13:21 | 20.82936 | 104.70391 | 17273 ft | 389 kts | 51° |
| 2026-05-09 13:22 | 20.84353 | 104.72781 | 16919 ft | 383 kts | 62° |
| 2026-05-09 13:22 | 20.85617 | 104.75284 | 16519 ft | 381 kts | 63° |
| 2026-05-09 13:22 | 20.86854 | 104.77773 | 16119 ft | 378 kts | 63° |
| 2026-05-09 13:23 | 20.91748 | 104.87505 | 14581 ft | 367 kts | 62° |
| 2026-05-09 13:23 | 20.92968 | 104.89904 | 14197 ft | 365 kts | 62° |
| 2026-05-09 13:24 | 20.94178 | 104.92279 | 13805 ft | 363 kts | 62° |
| 2026-05-09 13:24 | 20.95384 | 104.94645 | 13373 ft | 361 kts | 62° |
| 2026-05-09 13:24 | 20.96582 | 104.96997 | 12979 ft | 358 kts | 62° |
| 2026-05-09 13:24 | 20.97764 | 104.99317 | 12595 ft | 355 kts | 62° |
| 2026-05-09 13:25 | 20.98940 | 105.01626 | 12215 ft | 352 kts | 62° |
| 2026-05-09 13:25 | 21.00106 | 105.03915 | 11840 ft | 349 kts | 62° |
| 2026-05-09 13:25 | 21.02409 | 105.08442 | 11105 ft | 344 kts | 62° |
| 2026-05-09 13:26 | 21.03549 | 105.10685 | 10746 ft | 342 kts | 62° |
| 2026-05-09 13:26 | 21.04678 | 105.12906 | 10501 ft | 336 kts | 62° |
| 2026-05-09 13:26 | 21.05779 | 105.15073 | 10347 ft | 327 kts | 62° |
| 2026-05-09 13:26 | 21.06853 | 105.17187 | 10203 ft | 318 kts | 62° |
| 2026-05-09 13:27 | 21.07886 | 105.19222 | 10070 ft | 311 kts | 62° |
| 2026-05-09 13:27 | 21.08905 | 105.21229 | 9956 ft | 301 kts | 62° |
| 2026-05-09 13:27 | 21.09885 | 105.23161 | 9596 ft | 300 kts | 62° |
| 2026-05-09 13:27 | 21.10873 | 105.25106 | 9237 ft | 294 kts | 62° |
| 2026-05-09 13:28 | 21.11837 | 105.27010 | 8915 ft | 286 kts | 62° |
| 2026-05-09 13:28 | 21.12775 | 105.28862 | 8609 ft | 278 kts | 63° |
| 2026-05-09 13:28 | 21.13686 | 105.30663 | 8327 ft | 271 kts | 63° |
| 2026-05-09 13:28 | 21.14556 | 105.32416 | 8066 ft | 263 kts | 63° |
| 2026-05-09 13:29 | 21.15373 | 105.34166 | 7526 ft | 268 kts | 66° |
| 2026-05-09 13:29 | 21.16152 | 105.35980 | 6997 ft | 272 kts | 66° |
| 2026-05-09 13:29 | 21.16923 | 105.37800 | 6608 ft | 269 kts | 66° |
| 2026-05-09 13:29 | 21.17695 | 105.39612 | 6224 ft | 266 kts | 66° |
| 2026-05-09 13:30 | 21.18465 | 105.41414 | 5773 ft | 265 kts | 66° |
| 2026-05-09 13:30 | 21.19232 | 105.43202 | 5408 ft | 261 kts | 66° |
| 2026-05-09 13:30 | 21.19964 | 105.44899 | 5344 ft | 241 kts | 66° |
| 2026-05-09 13:30 | 21.20642 | 105.46470 | 5229 ft | 222 kts | 66° |
| 2026-05-09 13:31 | 21.21256 | 105.47893 | 5105 ft | 204 kts | 66° |
| 2026-05-09 13:31 | 21.21840 | 105.49245 | 4918 ft | 192 kts | 66° |
| 2026-05-09 13:31 | 21.22389 | 105.50517 | 4584 ft | 189 kts | 66° |
| 2026-05-09 13:31 | 21.22945 | 105.51806 | 4226 ft | 187 kts | 66° |
| 2026-05-09 13:32 | 21.23480 | 105.53045 | 4088 ft | 178 kts | 66° |
| 2026-05-09 13:32 | 21.24524 | 105.55462 | 3926 ft | 184 kts | 66° |
| 2026-05-09 13:32 | 21.25067 | 105.56724 | 3849 ft | 187 kts | 67° |
| 2026-05-09 13:33 | 21.25614 | 105.57992 | 3681 ft | 189 kts | 66° |
| 2026-05-09 13:33 | 21.26163 | 105.59265 | 3484 ft | 186 kts | 66° |
| 2026-05-09 13:33 | 21.26695 | 105.60504 | 3285 ft | 182 kts | 66° |
| 2026-05-09 13:33 | 21.27134 | 105.61758 | 3075 ft | 181 kts | 85° |
| 2026-05-09 13:34 | 21.26910 | 105.63067 | 2940 ft | 179 kts | 108° |
| 2026-05-09 13:34 | 21.26557 | 105.64359 | 2722 ft | 181 kts | 103° |
| 2026-05-09 13:34 | 21.26216 | 105.65647 | 2489 ft | 180 kts | 103° |
| 2026-05-09 13:34 | 21.25992 | 105.66492 | 2333 ft | 176 kts | 103° |
| 2026-05-09 13:35 | 21.25660 | 105.67741 | 2153 ft | 173 kts | 103° |
| 2026-05-09 13:35 | 21.25320 | 105.69020 | 1877 ft | 180 kts | 103° |
| 2026-05-09 13:35 | 21.24976 | 105.70305 | 1627 ft | 180 kts | 103° |
| 2026-05-09 13:35 | 21.24638 | 105.71575 | 1398 ft | 172 kts | 103° |
| 2026-05-09 13:36 | 21.24282 | 105.72764 | 1195 ft | 163 kts | 107° |
| 2026-05-09 13:36 | 21.23909 | 105.73916 | 1005 ft | 164 kts | 108° |
| 2026-05-09 13:36 | 21.23516 | 105.75061 | 795 ft | 162 kts | 109° |
| 2026-05-09 13:36 | 21.23177 | 105.76215 | 549 ft | 163 kts | 106° |
| 2026-05-09 13:37 | 21.22736 | 105.77763 | 261 ft | 163 kts | 108° |
| 2026-05-09 13:37 | 21.22497 | 105.78536 | 97 ft | 166 kts | 106° |
| 2026-05-09 13:37 | 21.22180 | 105.79657 | 42 ft | 140 kts | 112° |
| 2026-05-09 13:37 | 21.21956 | 105.80431 | 49 ft | 78 kts | 108° |
| 2026-05-09 13:38 | 21.21845 | 105.80785 | 48 ft | 42 kts | 111° |
| 2026-05-09 13:38 | 21.21686 | 105.80975 | 47 ft | 25 kts | 149° |
| 2026-05-09 13:38 | 21.21654 | 105.80862 | 47 ft | 21 kts | 288° |
| 2026-05-09 13:38 | 21.21689 | 105.80730 | 48 ft | 16 kts | 270° |
| 2026-05-09 13:39 | 21.21630 | 105.80640 | 47 ft | 9 kts | 266° |
| 2026-05-09 13:39 | 21.21628 | 105.80607 | 48 ft | 4 kts | 261° |
| 2026-05-09 13:39 | 21.21626 | 105.80598 | 48 ft | 0 kts | 255° |
| 2026-05-09 13:40 | 21.21618 | 105.80577 | 46 ft | 8 kts | 248° |
| 2026-05-09 13:40 | 21.21601 | 105.80536 | 48 ft | 5 kts | 244° |
| 2026-05-09 13:41 | 21.21591 | 105.80513 | 48 ft | 2 kts | 244° |
| 2026-05-09 13:41 | 21.21587 | 105.80506 | 48 ft | 0 kts | 244° |
| 2026-05-09 13:41 | 21.21586 | 105.80502 | 48 ft | 1 kts | 245° |
| 2026-05-09 13:42 | 21.21585 | 105.80501 | 48 ft | 0 kts | 245° |
| 2026-05-09 13:42 | 21.21584 | 105.80498 | 48 ft | 0 kts | 245° |
| 2026-05-09 13:42 | 21.21584 | 105.80497 | 48 ft | 0 kts | 245° |
| 2026-05-09 13:43 | 21.21583 | 105.80497 | 48 ft | 0 kts | 245° |
| 2026-05-09 13:43 | 21.21582 | 105.80494 | 48 ft | 0 kts | 245° |